createdAt,value
2018-05-14T00:01:25.608Z,15.03
2018-05-14T00:03:54.627Z,14.70
2018-05-14T00:06:23.631Z,14.30
2018-05-14T00:08:52.649Z,13.43
2018-05-14T00:11:20.900Z,14.83
2018-05-14T00:13:49.150Z,17.57
2018-05-14T00:16:17.447Z,15.67
2018-05-14T00:18:45.709Z,17.90
2018-05-14T00:21:13.951Z,17.70
2018-05-14T00:23:42.209Z,16.43
2018-05-14T00:26:10.449Z,17.27
2018-05-14T00:28:39.483Z,15.83
2018-05-14T00:31:07.723Z,18.90
2018-05-14T00:33:35.982Z,20.20
2018-05-14T00:36:04.252Z,17.77
2018-05-14T00:38:32.520Z,17.77
2018-05-14T00:41:02.285Z,22.57
2018-05-14T00:43:30.539Z,21.93
2018-05-14T00:45:58.787Z,22.03
2018-05-14T00:48:27.041Z,23.13
2018-05-14T00:50:55.278Z,23.17
2018-05-14T00:53:23.533Z,25.30
2018-05-14T00:55:51.771Z,25.20
2018-05-14T00:58:20.795Z,24.93
2018-05-14T01:00:49.051Z,28.23
2018-05-14T01:03:17.323Z,23.80
2018-05-14T01:05:45.563Z,30.47
2018-05-14T01:08:13.810Z,28.20
2018-05-14T01:10:42.071Z,28.80
2018-05-14T01:13:10.316Z,30.27
2018-05-14T01:15:39.332Z,30.37
2018-05-14T01:18:07.624Z,31.00
2018-05-14T01:20:35.875Z,29.17
2018-05-14T01:23:04.127Z,29.73
2018-05-14T01:25:32.462Z,31.37
2018-05-14T01:28:00.777Z,30.07
2018-05-14T01:30:29.056Z,31.37
2018-05-14T01:32:58.075Z,31.60
2018-05-14T01:35:26.348Z,29.20
2018-05-14T01:37:55.367Z,27.90
2018-05-14T01:40:23.624Z,28.57
2018-05-14T01:42:51.869Z,25.73
2018-05-14T01:45:20.131Z,27.73
2018-05-14T01:47:49.146Z,25.37
2018-05-14T01:50:17.411Z,21.60
2018-05-14T01:52:46.418Z,23.13
2018-05-14T01:55:15.814Z,23.50
2018-05-14T01:57:44.087Z,25.23
2018-05-14T02:00:12.341Z,23.63
2018-05-14T02:02:40.586Z,20.60
2018-05-14T02:05:08.847Z,19.10
2018-05-14T02:07:37.099Z,19.77
2018-05-14T02:10:05.362Z,22.37
2018-05-14T02:12:34.415Z,19.43
2018-05-14T02:15:02.691Z,17.13
2018-05-14T02:17:30.960Z,20.53
2018-05-14T02:19:59.996Z,19.27
2018-05-14T02:22:28.239Z,18.30
2018-05-14T02:24:57.268Z,21.97
2018-05-14T02:27:26.271Z,17.40
2018-05-14T02:29:54.534Z,18.33
2018-05-14T02:32:22.775Z,16.90
2018-05-14T02:34:51.043Z,14.63
2018-05-14T02:37:19.306Z,18.80
2018-05-14T02:39:47.565Z,13.37
2018-05-14T02:42:15.811Z,16.63
2018-05-14T02:44:44.077Z,15.27
2018-05-14T02:47:13.074Z,14.30
2018-05-14T02:49:41.344Z,14.10
2018-05-14T02:52:09.585Z,15.23
2018-05-14T02:54:37.826Z,13.10
2018-05-14T02:57:06.083Z,16.87
2018-05-14T02:59:34.340Z,13.97
2018-05-14T03:02:03.371Z,14.33
2018-05-14T03:04:31.618Z,13.27
2018-05-14T03:06:59.872Z,12.67
2018-05-14T03:09:28.112Z,9.67
2018-05-14T03:11:57.160Z,10.97
2018-05-14T03:14:25.386Z,11.20
2018-05-14T03:16:54.411Z,10.10
2018-05-14T03:19:23.415Z,10.63
2018-05-14T03:21:52.438Z,9.47
2018-05-14T03:24:20.663Z,10.87
2018-05-14T03:26:49.591Z,10.13
2018-05-14T03:29:17.884Z,9.57
2018-05-14T03:31:46.082Z,9.57
2018-05-14T03:34:15.122Z,11.10
2018-05-14T03:36:43.371Z,9.77
2018-05-14T03:39:11.611Z,11.60
2018-05-14T03:41:39.878Z,10.83
2018-05-14T03:44:08.131Z,12.07
2018-05-14T03:46:36.387Z,10.33
2018-05-14T03:49:04.619Z,10.40
2018-05-14T03:51:32.894Z,10.20
2018-05-14T03:54:01.916Z,11.30
2018-05-14T03:56:30.951Z,10.87
2018-05-14T03:59:16.948Z,9.70
2018-05-14T04:02:13.726Z,8.57
2018-05-14T04:04:59.768Z,9.00
2018-05-14T04:07:28.020Z,6.77
2018-05-14T04:09:56.261Z,8.13
2018-05-14T04:12:24.525Z,8.13
2018-05-14T04:14:52.748Z,7.93
2018-05-14T04:17:21.779Z,7.97
2018-05-14T04:19:50.019Z,7.40
2018-05-14T04:22:18.281Z,8.27
2018-05-14T04:24:46.519Z,7.73
2018-05-14T04:27:15.563Z,7.33
2018-05-14T04:29:43.821Z,6.90
2018-05-14T04:32:12.116Z,6.87
2018-05-14T04:34:41.110Z,7.93
2018-05-14T04:37:10.240Z,8.00
2018-05-14T04:39:39.356Z,6.63
2018-05-14T04:42:08.451Z,8.30
2018-05-14T04:44:37.459Z,7.40
2018-05-14T04:47:06.483Z,6.37
2018-05-14T04:49:34.732Z,8.00
2018-05-14T04:52:03.043Z,6.50
2018-05-14T04:54:32.055Z,6.47
2018-05-14T04:57:01.091Z,6.87
2018-05-14T04:59:29.362Z,7.50
2018-05-14T05:01:57.615Z,8.17
2018-05-14T05:04:27.359Z,7.90
2018-05-14T05:06:56.456Z,8.20
2018-05-14T05:09:24.607Z,7.70
2018-05-14T05:11:52.863Z,7.50
2018-05-14T05:14:21.099Z,7.57
2018-05-14T05:16:49.354Z,7.93
2018-05-14T05:19:17.600Z,7.10
2018-05-14T05:21:46.619Z,11.10
2018-05-14T05:24:14.867Z,8.87
2018-05-14T05:26:43.118Z,9.80
2018-05-14T05:29:11.383Z,8.33
2018-05-14T05:31:40.415Z,8.07
2018-05-14T05:34:08.643Z,9.27
2018-05-14T05:36:36.971Z,9.17
2018-05-14T05:39:05.975Z,9.03
2018-05-14T05:41:35.075Z,7.67
2018-05-14T05:44:04.109Z,8.93
2018-05-14T05:46:32.346Z,10.00
2018-05-14T05:49:01.450Z,7.60
2018-05-14T05:51:29.771Z,10.67
2018-05-14T05:53:58.791Z,7.90
2018-05-14T05:56:27.023Z,7.90
2018-05-14T05:58:55.280Z,6.83
2018-05-14T06:01:24.386Z,10.07
2018-05-14T06:03:52.648Z,7.07
2018-05-14T06:06:21.649Z,10.13
2018-05-14T06:08:49.944Z,7.63
2018-05-14T06:11:18.954Z,8.63
2018-05-14T06:13:48.013Z,7.83
2018-05-14T06:16:16.242Z,7.80
2018-05-14T06:18:45.259Z,8.67
2018-05-14T06:21:14.270Z,8.53
2018-05-14T06:23:43.294Z,7.73
2018-05-14T06:26:11.522Z,7.13
2018-05-14T06:28:39.777Z,9.17
2018-05-14T06:31:08.024Z,11.87
2018-05-14T06:33:36.275Z,9.87
2018-05-14T06:36:04.603Z,7.20
2018-05-14T06:38:33.614Z,9.50
2018-05-14T06:41:03.212Z,9.47
2018-05-14T06:43:31.539Z,7.67
2018-05-14T06:45:59.780Z,7.13
2018-05-14T06:48:28.040Z,11.03
2018-05-14T06:50:56.275Z,9.03
2018-05-14T06:53:24.582Z,9.13
2018-05-14T06:55:53.691Z,8.93
2018-05-14T06:58:23.465Z,12.20
2018-05-14T07:00:51.694Z,9.67
2018-05-14T07:03:19.995Z,10.53
2018-05-14T07:05:49.003Z,8.30
2018-05-14T07:08:18.031Z,12.40
2018-05-14T07:10:46.315Z,10.17
2018-05-14T07:13:14.571Z,9.67
2018-05-14T07:15:44.159Z,7.57
2018-05-14T07:18:12.419Z,9.53
2018-05-14T07:20:41.427Z,7.00
2018-05-14T07:23:09.679Z,7.40
2018-05-14T07:25:37.919Z,7.50
2018-05-14T07:28:06.172Z,8.40
2018-05-14T07:30:35.190Z,7.83
2018-05-14T07:33:03.448Z,8.43
2018-05-14T07:35:31.684Z,9.50
2018-05-14T07:37:59.946Z,9.43
2018-05-14T07:40:29.758Z,6.67
2018-05-14T07:42:57.967Z,6.63
2018-05-14T07:45:26.210Z,8.93
2018-05-14T07:47:54.531Z,9.53
2018-05-14T07:50:24.138Z,8.63
2018-05-14T07:52:53.563Z,9.77
2018-05-14T07:55:22.586Z,8.20
2018-05-14T07:57:50.930Z,11.67
2018-05-14T08:00:19.964Z,12.17
2018-05-14T08:02:48.131Z,13.33
2018-05-14T08:05:16.443Z,9.53
2018-05-14T08:07:45.442Z,8.10
2018-05-14T08:10:13.698Z,9.30
2018-05-14T08:12:41.954Z,11.07
2018-05-14T08:15:10.211Z,8.10
2018-05-14T08:17:39.237Z,10.20
2018-05-14T08:20:08.846Z,12.63
2018-05-14T08:22:37.851Z,8.77
2018-05-14T08:25:06.106Z,10.50
2018-05-14T08:27:34.353Z,12.90
2018-05-14T08:30:02.650Z,8.93
2018-05-14T08:32:30.892Z,11.40
2018-05-14T08:34:59.165Z,10.27
2018-05-14T08:37:27.426Z,10.80
2018-05-14T08:39:55.667Z,9.47
2018-05-14T08:42:23.966Z,11.03
2018-05-14T08:44:52.990Z,9.60
2018-05-14T08:47:21.996Z,9.77
2018-05-14T08:49:50.261Z,9.43
2018-05-14T08:52:18.496Z,12.13
2018-05-14T08:54:46.784Z,11.83
2018-05-14T08:57:15.750Z,12.73
2018-05-14T08:59:43.998Z,10.53
2018-05-14T09:02:12.244Z,12.70
2018-05-14T09:04:41.260Z,15.03
2018-05-14T09:07:09.503Z,16.20
2018-05-14T09:09:37.758Z,13.87
2018-05-14T09:12:05.997Z,13.90
2018-05-14T09:14:34.272Z,22.27
2018-05-14T09:17:02.525Z,18.13
2018-05-14T09:19:30.922Z,15.37
2018-05-14T09:21:59.871Z,13.57
2018-05-14T09:24:28.131Z,17.70
2018-05-14T09:26:56.378Z,12.67
2018-05-14T09:29:24.652Z,15.30
2018-05-14T09:31:52.947Z,15.97
2018-05-14T09:34:22.724Z,17.23
2018-05-14T09:36:50.967Z,14.33
2018-05-14T09:39:19.198Z,13.03
2018-05-14T09:41:47.456Z,16.63
2018-05-14T09:44:15.703Z,16.87
2018-05-14T09:46:44.728Z,17.33
2018-05-14T09:49:14.482Z,18.47
2018-05-14T09:51:42.741Z,20.47
2018-05-14T09:54:12.496Z,20.70
2018-05-14T09:56:40.746Z,16.57
2018-05-14T09:59:09.761Z,16.57
2018-05-14T10:01:38.042Z,17.73
2018-05-14T10:04:07.049Z,19.47
2018-05-14T10:06:36.077Z,17.03
2018-05-14T10:09:04.322Z,17.97
2018-05-14T10:11:34.173Z,15.43
2018-05-14T10:14:03.184Z,16.83
2018-05-14T10:16:31.457Z,19.60
2018-05-14T10:19:00.468Z,16.80
2018-05-14T10:21:29.492Z,19.97
2018-05-14T10:23:57.762Z,14.43
2018-05-14T10:26:26.876Z,18.13
2018-05-14T10:28:55.888Z,16.00
2018-05-14T10:31:24.987Z,15.03
2018-05-14T10:33:53.233Z,15.97
2018-05-14T10:36:21.515Z,15.20
2018-05-14T10:38:49.751Z,14.87
2018-05-14T10:41:18.798Z,16.30
2018-05-14T10:43:47.047Z,15.43
2018-05-14T10:46:16.157Z,15.93
2018-05-14T10:48:45.917Z,12.77
2018-05-14T10:51:14.163Z,16.90
2018-05-14T10:53:43.180Z,13.90
2018-05-14T10:56:12.207Z,15.47
2018-05-14T10:58:40.500Z,13.20
2018-05-14T11:01:08.702Z,12.73
2018-05-14T11:03:36.955Z,13.80
2018-05-14T11:06:05.975Z,12.47
2018-05-14T11:08:34.975Z,12.80
2018-05-14T11:11:03.271Z,14.97
2018-05-14T11:13:32.272Z,12.73
2018-05-14T11:16:00.536Z,13.40
2018-05-14T11:18:28.779Z,13.13
2018-05-14T11:20:57.042Z,13.53
2018-05-14T11:23:25.278Z,14.33
2018-05-14T11:25:54.317Z,13.90
2018-05-14T11:28:23.318Z,14.13
2018-05-14T11:30:52.335Z,12.33
2018-05-14T11:33:22.098Z,14.20
2018-05-14T11:35:50.351Z,12.77
2018-05-14T11:38:19.358Z,12.93
2018-05-14T11:40:48.385Z,13.10
2018-05-14T11:43:16.641Z,14.00
2018-05-14T11:45:45.643Z,14.50
2018-05-14T11:48:13.900Z,12.97
2018-05-14T11:50:42.248Z,13.30
2018-05-14T11:53:11.263Z,14.73
2018-05-14T11:55:39.501Z,13.67
2018-05-14T11:58:07.759Z,14.10
2018-05-14T12:00:36.008Z,13.73
2018-05-14T12:03:05.073Z,13.77
2018-05-14T12:05:33.275Z,12.80
2018-05-14T12:08:02.307Z,17.17
2018-05-14T12:10:32.083Z,13.07
2018-05-14T12:13:00.342Z,13.30
2018-05-14T12:15:28.616Z,12.80
2018-05-14T12:17:57.651Z,13.70
2018-05-14T12:20:25.887Z,17.57
2018-05-14T12:22:54.131Z,16.70
2018-05-14T12:25:22.383Z,17.10
2018-05-14T12:27:52.147Z,16.60
2018-05-14T12:30:20.405Z,17.07
2018-05-14T12:32:49.423Z,17.70
2018-05-14T12:35:17.721Z,17.90
2018-05-14T12:37:45.975Z,16.47
2018-05-14T12:40:14.987Z,18.50
2018-05-14T12:42:44.007Z,20.20
2018-05-14T12:45:12.250Z,18.73
2018-05-14T12:47:40.531Z,18.03
2018-05-14T12:50:08.767Z,19.63
2018-05-14T12:52:37.059Z,16.83
2018-05-14T12:55:06.156Z,18.53
2018-05-14T12:57:35.179Z,20.50
2018-05-14T13:00:03.429Z,21.07
2018-05-14T13:02:32.456Z,18.37
2018-05-14T13:05:01.435Z,19.63
2018-05-14T13:07:30.493Z,20.17
2018-05-14T13:09:58.804Z,18.87
2018-05-14T13:12:27.253Z,18.63
2018-05-14T13:14:56.269Z,15.97
2018-05-14T13:17:24.577Z,19.13
2018-05-14T13:19:52.816Z,21.33
2018-05-14T13:22:21.111Z,17.40
2018-05-14T13:24:49.412Z,20.83
2018-05-14T13:27:18.454Z,19.10
2018-05-14T13:29:46.711Z,18.47
2018-05-14T13:32:15.699Z,22.70
2018-05-14T13:34:43.988Z,19.37
2018-05-14T13:37:12.243Z,19.73
2018-05-14T13:39:40.490Z,18.07
2018-05-14T13:42:09.539Z,18.97
2018-05-14T13:44:37.828Z,17.70
2018-05-14T13:47:06.787Z,17.40
2018-05-14T13:49:35.824Z,18.53
2018-05-14T13:52:04.112Z,22.27
2018-05-14T13:54:32.379Z,17.53
2018-05-14T13:57:00.622Z,18.77
2018-05-14T13:59:29.682Z,17.27
2018-05-14T14:01:58.656Z,17.67
2018-05-14T14:04:26.953Z,20.37
2018-05-14T14:06:55.967Z,20.33
2018-05-14T14:09:24.989Z,20.77
2018-05-14T14:11:54.011Z,19.10
2018-05-14T14:14:22.270Z,19.23
2018-05-14T14:16:51.283Z,17.37
2018-05-14T14:19:20.268Z,24.17
2018-05-14T14:21:48.555Z,19.43
2018-05-14T14:24:16.919Z,21.20
2018-05-14T14:26:45.836Z,24.30
2018-05-14T14:29:14.061Z,21.37
2018-05-14T14:31:42.340Z,23.17
2018-05-14T14:34:12.116Z,22.40
2018-05-14T14:36:40.356Z,22.10
2018-05-14T14:39:09.343Z,21.97
2018-05-14T14:41:37.622Z,23.00
2018-05-14T14:44:05.883Z,22.67
2018-05-14T14:46:34.131Z,23.47
2018-05-14T14:49:03.238Z,22.67
2018-05-14T14:51:31.410Z,23.90
2018-05-14T14:53:59.633Z,26.77
2018-05-14T14:56:28.671Z,24.40
2018-05-14T14:58:56.935Z,25.03
2018-05-14T15:01:25.188Z,24.47
2018-05-14T15:03:54.247Z,25.10
2018-05-14T15:06:22.492Z,27.57
2018-05-14T15:08:51.515Z,28.93
2018-05-14T15:11:19.724Z,27.53
2018-05-14T15:13:48.023Z,27.87
2018-05-14T15:16:16.280Z,26.33
2018-05-14T15:18:44.535Z,24.13
2018-05-14T15:21:12.774Z,28.97
2018-05-14T15:23:41.032Z,24.97
2018-05-14T15:26:10.034Z,25.63
2018-05-14T15:28:39.067Z,28.80
2018-05-14T15:31:07.310Z,29.50
2018-05-14T15:33:35.571Z,29.90
2018-05-14T15:36:03.854Z,29.70
2018-05-14T15:38:32.126Z,28.40
2018-05-14T15:41:00.367Z,27.07
2018-05-14T15:43:28.635Z,27.83
2018-05-14T15:45:56.844Z,30.50
2018-05-14T15:48:25.139Z,30.87
2018-05-14T15:50:53.402Z,33.20
2018-05-14T15:53:21.596Z,33.13
2018-05-14T15:55:50.612Z,37.30
2018-05-14T15:58:18.906Z,33.87
2018-05-14T16:00:47.163Z,32.43
2018-05-14T16:03:15.403Z,37.00
2018-05-14T16:05:44.423Z,36.60
2018-05-14T16:08:12.686Z,31.97
2018-05-14T16:10:42.111Z,32.60
2018-05-14T16:13:11.235Z,34.27
2018-05-14T16:15:39.498Z,30.77
2018-05-14T16:18:07.741Z,29.40
2018-05-14T16:20:36.009Z,39.70
2018-05-14T16:23:04.283Z,35.27
2018-05-14T16:25:33.317Z,40.10
2018-05-14T16:28:01.587Z,40.80
2018-05-14T16:30:30.621Z,36.57
2018-05-14T16:32:59.635Z,36.73
2018-05-14T16:35:27.979Z,37.37
2018-05-14T16:37:57.807Z,45.27
2018-05-14T16:40:27.245Z,39.57
2018-05-14T16:42:55.483Z,42.10
2018-05-14T16:45:23.762Z,44.60
2018-05-14T16:47:52.771Z,44.53
2018-05-14T16:50:21.082Z,47.90
2018-05-14T16:52:49.389Z,45.10
2018-05-14T16:55:18.782Z,44.73
2018-05-14T16:57:47.057Z,47.33
2018-05-14T17:00:15.250Z,47.63
2018-05-14T17:02:44.345Z,43.50
2018-05-14T17:05:13.408Z,49.77
2018-05-14T17:07:41.654Z,42.60
2018-05-14T17:10:09.961Z,44.67
2018-05-14T17:12:38.983Z,49.80
2018-05-14T17:15:08.004Z,50.20
2018-05-14T17:17:36.257Z,46.30
2018-05-14T17:20:04.534Z,50.57
2018-05-14T17:22:32.780Z,47.80
2018-05-14T17:25:01.057Z,50.07
2018-05-14T17:27:29.332Z,48.90
2018-05-14T17:29:58.435Z,45.30
2018-05-14T17:32:28.246Z,44.97
2018-05-14T17:34:56.543Z,42.03
2018-05-14T17:37:25.551Z,42.60
2018-05-14T17:39:54.574Z,41.60
2018-05-14T17:42:22.849Z,39.43
2018-05-14T17:44:51.963Z,38.07
2018-05-14T17:47:21.075Z,36.97
2018-05-14T17:49:50.065Z,35.87
2018-05-14T17:52:18.322Z,38.23
2018-05-14T17:54:47.384Z,40.40
2018-05-14T17:57:16.478Z,37.03
2018-05-14T17:59:45.511Z,38.17
2018-05-14T18:02:13.788Z,37.73
2018-05-14T18:04:42.000Z,37.63
2018-05-14T18:07:10.306Z,39.70
2018-05-14T18:09:38.646Z,36.40
2018-05-14T18:12:07.673Z,38.07
2018-05-14T18:14:35.885Z,32.43
2018-05-14T18:17:04.183Z,36.00
2018-05-14T18:19:37.891Z,32.80
2018-05-14T18:22:11.621Z,38.50
2018-05-14T18:27:45.231Z,37.47
2018-05-14T18:30:13.474Z,36.87
2018-05-14T18:35:43.933Z,33.07
2018-05-14T18:38:12.171Z,35.87
2018-05-14T18:40:41.221Z,33.57
2018-05-14T18:43:09.502Z,37.23
2018-05-14T18:45:37.745Z,32.87
2018-05-14T18:48:06.776Z,39.30
2018-05-14T18:50:35.060Z,32.90
2018-05-14T18:53:03.298Z,34.17
2018-05-14T18:55:32.354Z,33.77
2018-05-14T18:58:01.383Z,37.43
2018-05-14T19:00:29.596Z,38.53
2018-05-14T19:02:58.677Z,35.77
2018-05-14T19:05:26.943Z,39.57
2018-05-14T19:07:55.982Z,38.60
2018-05-14T19:10:29.884Z,36.93
2018-05-14T19:12:58.147Z,35.87
2018-05-14T19:15:32.778Z,40.83
2018-05-14T19:18:01.826Z,39.23
2018-05-14T19:20:30.062Z,33.23
2018-05-14T19:23:05.518Z,36.93
2018-05-14T19:25:33.893Z,42.17
2018-05-14T19:28:07.700Z,39.97
2018-05-14T19:30:36.762Z,37.20
2018-05-14T19:33:05.810Z,37.03
2018-05-14T19:35:39.607Z,39.00
2018-05-14T19:38:08.636Z,37.40
2018-05-14T19:40:42.488Z,37.67
2018-05-14T19:43:10.756Z,45.40
2018-05-14T19:45:39.095Z,42.07
2018-05-14T19:48:08.133Z,47.87
2018-05-14T19:50:36.390Z,41.57
2018-05-14T19:53:05.380Z,43.80
2018-05-14T19:55:33.666Z,43.63
2018-05-14T19:58:02.003Z,43.90
2018-05-14T20:00:30.272Z,40.67
2018-05-14T20:02:59.295Z,42.07
2018-05-14T20:05:27.563Z,41.10
2018-05-14T20:07:56.607Z,46.10
2018-05-14T20:10:24.866Z,44.07
2018-05-14T20:12:53.933Z,42.27
2018-05-14T20:15:22.191Z,38.73
2018-05-14T20:17:50.456Z,45.77
2018-05-14T20:20:19.471Z,44.70
2018-05-14T20:22:47.729Z,39.47
2018-05-14T20:25:16.759Z,40.23
2018-05-14T20:27:46.574Z,44.63
2018-05-14T20:30:15.723Z,43.23
2018-05-14T20:32:44.088Z,42.77
2018-05-14T20:35:12.363Z,44.23
2018-05-14T20:37:41.359Z,43.13
2018-05-14T20:40:09.639Z,40.80
2018-05-14T20:42:37.912Z,42.27
2018-05-14T20:45:06.229Z,49.90
2018-05-14T20:47:34.449Z,41.43
2018-05-14T20:50:02.823Z,44.27
2018-05-14T20:52:31.115Z,47.43
2018-05-14T20:54:59.398Z,41.37
2018-05-14T20:57:28.402Z,38.00
2018-05-14T20:59:57.393Z,39.47
2018-05-14T21:02:25.679Z,39.63
2018-05-14T21:04:54.742Z,41.07
2018-05-14T21:07:23.031Z,39.00
2018-05-14T21:09:51.307Z,39.73
2018-05-14T21:12:19.599Z,43.83
2018-05-14T21:14:47.890Z,36.77
2018-05-14T21:17:16.127Z,39.17
2018-05-14T21:19:44.408Z,39.10
2018-05-14T21:22:12.619Z,38.80
2018-05-14T21:24:41.022Z,39.47
2018-05-14T21:27:10.618Z,37.73
2018-05-14T21:29:38.879Z,36.10
2018-05-14T21:32:07.159Z,34.93
2018-05-14T21:34:35.525Z,36.67
2018-05-14T21:37:03.859Z,34.80
2018-05-14T21:39:32.189Z,35.80
2018-05-14T21:42:01.253Z,37.70
2018-05-14T21:44:29.514Z,37.67
2018-05-14T21:46:57.775Z,36.57
2018-05-14T21:49:26.821Z,37.20
2018-05-14T21:51:55.075Z,35.53
2018-05-14T21:54:24.187Z,36.10
2018-05-14T21:56:52.468Z,40.43
2018-05-14T21:59:21.458Z,38.80
2018-05-14T22:01:49.772Z,34.40
2018-05-14T22:04:18.777Z,35.73
2018-05-14T22:06:47.064Z,36.63
2018-05-14T22:09:16.094Z,37.63
2018-05-14T22:11:44.366Z,37.93
2018-05-14T22:14:12.652Z,35.77
2018-05-14T22:16:41.635Z,32.77
2018-05-14T22:19:09.964Z,34.40
2018-05-14T22:21:38.242Z,32.53
2018-05-14T22:24:07.279Z,31.87
2018-05-14T22:26:35.645Z,34.40
2018-05-14T22:29:05.012Z,55.23
2018-05-14T22:31:33.278Z,40.77
2018-05-14T22:34:01.554Z,32.40
2018-05-14T22:36:29.934Z,36.67
2018-05-14T22:38:58.175Z,36.37
2018-05-14T22:41:27.217Z,33.13
2018-05-14T22:43:56.655Z,36.00
2018-05-14T22:46:24.931Z,37.37
2018-05-14T22:48:53.251Z,34.33
2018-05-14T22:51:21.521Z,37.90
2018-05-14T22:53:49.767Z,40.40
2018-05-14T22:56:18.077Z,41.17
2018-05-14T22:58:47.086Z,37.93
2018-05-14T23:01:16.118Z,39.90
2018-05-14T23:03:44.360Z,38.80
2018-05-14T23:06:12.654Z,43.70
2018-05-14T23:08:41.664Z,41.23
2018-05-14T23:11:10.767Z,41.77
2018-05-14T23:13:39.751Z,41.63
2018-05-14T23:16:08.820Z,36.40
2018-05-14T23:18:37.051Z,41.57
2018-05-14T23:21:06.119Z,42.40
2018-05-14T23:23:34.383Z,32.90
2018-05-14T23:26:03.418Z,40.87
2018-05-14T23:28:31.903Z,37.83
2018-05-14T23:31:00.172Z,38.00
2018-05-14T23:33:29.233Z,35.30
2018-05-14T23:35:57.447Z,36.23
2018-05-14T23:38:26.567Z,37.27
2018-05-14T23:40:55.600Z,38.10
2018-05-14T23:43:23.862Z,35.60
2018-05-14T23:45:53.071Z,38.43
2018-05-14T23:48:21.985Z,38.60
2018-05-14T23:50:51.009Z,33.40
2018-05-14T23:53:19.251Z,36.60
2018-05-14T23:55:48.304Z,36.17
2018-05-14T23:58:16.544Z,32.40
